createdAt,value
2022-10-01T00:00:00.641Z,0.00
2022-10-01T00:01:00.742Z,0.00
2022-10-01T00:02:00.911Z,0.00
2022-10-01T00:03:01.062Z,0.00
2022-10-01T00:04:01.111Z,0.00
2022-10-01T00:05:01.211Z,0.00
2022-10-01T00:06:01.334Z,0.00
2022-10-01T00:07:01.440Z,0.00
2022-10-01T00:08:01.532Z,0.00
2022-10-01T00:09:01.711Z,0.00
2022-10-01T00:10:01.821Z,0.00
2022-10-01T00:11:01.969Z,0.00
2022-10-01T00:12:02.071Z,0.00
2022-10-01T00:13:02.142Z,0.00
2022-10-01T00:14:02.268Z,0.00
2022-10-01T00:15:05.904Z,0.00
2022-10-01T00:16:02.516Z,0.00
2022-10-01T00:17:02.700Z,0.00
2022-10-01T00:18:02.789Z,0.00
2022-10-01T00:19:02.928Z,0.00
2022-10-01T00:20:10.548Z,0.00
2022-10-01T00:21:04.193Z,0.00
2022-10-01T00:22:03.362Z,0.00
2022-10-01T00:23:03.437Z,0.00
2022-10-01T00:24:03.567Z,0.00
2022-10-01T00:25:03.727Z,0.00
2022-10-01T00:26:03.836Z,0.00
2022-10-01T00:27:03.966Z,0.00
2022-10-01T00:28:04.101Z,0.00
2022-10-01T00:29:04.271Z,0.00
2022-10-01T00:30:04.295Z,0.00
2022-10-01T00:31:04.445Z,0.00
2022-10-01T00:32:04.543Z,0.00
2022-10-01T00:33:04.645Z,0.00
2022-10-01T00:34:04.727Z,0.00
2022-10-01T00:35:04.905Z,0.00
2022-10-01T00:36:04.944Z,0.00
2022-10-01T00:37:05.095Z,0.00
2022-10-01T00:38:05.166Z,0.00
2022-10-01T00:39:05.263Z,0.00
2022-10-01T00:40:05.395Z,0.00
2022-10-01T00:41:05.517Z,0.00
2022-10-01T00:42:05.647Z,0.00
2022-10-01T00:43:05.733Z,0.00
2022-10-01T00:44:05.830Z,0.00
2022-10-01T00:45:05.932Z,0.00
2022-10-01T00:46:06.106Z,0.00
2022-10-01T00:47:06.191Z,0.00
2022-10-01T00:48:06.349Z,0.00
2022-10-01T00:49:06.371Z,0.00
2022-10-01T00:50:06.501Z,0.00
2022-10-01T00:51:06.602Z,0.00
2022-10-01T00:52:06.784Z,0.00
2022-10-01T00:53:06.811Z,0.00
2022-10-01T00:54:06.924Z,0.00
2022-10-01T00:55:07.038Z,0.00
2022-10-01T00:56:07.168Z,0.00
2022-10-01T00:57:07.313Z,0.00
2022-10-01T00:58:07.370Z,0.00
2022-10-01T00:59:07.470Z,0.00
2022-10-01T01:00:07.607Z,0.00
2022-10-01T01:01:07.755Z,0.00
2022-10-01T01:02:07.880Z,0.00
2022-10-01T01:03:07.957Z,0.00
2022-10-01T01:04:08.042Z,0.00
2022-10-01T01:05:08.168Z,0.00
2022-10-01T01:06:08.278Z,0.00
2022-10-01T01:07:08.409Z,0.00
2022-10-01T01:08:08.541Z,0.00
2022-10-01T01:09:08.655Z,0.00
2022-10-01T01:10:08.756Z,0.00
2022-10-01T01:11:08.864Z,0.00
2022-10-01T01:12:09.046Z,0.00
2022-10-01T01:13:09.092Z,0.00
2022-10-01T01:14:09.214Z,0.00
2022-10-01T01:15:09.312Z,0.00
2022-10-01T01:16:09.462Z,0.00
2022-10-01T01:17:09.659Z,0.00
2022-10-01T01:18:09.656Z,0.00
2022-10-01T01:19:09.776Z,0.00
2022-10-01T01:20:09.888Z,0.00
2022-10-01T01:21:10.014Z,0.00
2022-10-01T01:22:10.155Z,0.00
2022-10-01T01:23:10.228Z,0.00
2022-10-01T01:24:10.343Z,0.00
2022-10-01T01:25:10.459Z,0.00
2022-10-01T01:26:10.552Z,0.00
2022-10-01T01:27:10.702Z,0.00
2022-10-01T01:28:10.791Z,0.00
2022-10-01T01:29:10.883Z,0.00
2022-10-01T01:30:11.001Z,0.00
2022-10-01T01:31:11.143Z,0.00
2022-10-01T01:32:14.660Z,0.00
2022-10-01T01:33:11.350Z,0.00
2022-10-01T01:34:11.452Z,0.00
2022-10-01T01:35:11.577Z,0.00
2022-10-01T01:36:11.679Z,0.00
2022-10-01T01:37:11.817Z,0.00
2022-10-01T01:38:11.890Z,0.00
2022-10-01T01:39:12.024Z,0.00
2022-10-01T01:40:12.119Z,0.00
2022-10-01T01:41:12.238Z,0.00
2022-10-01T01:42:12.368Z,0.00
2022-10-01T01:43:12.465Z,0.00
2022-10-01T01:44:12.585Z,0.00
2022-10-01T01:45:12.714Z,0.00
2022-10-01T01:46:12.898Z,0.00
2022-10-01T01:47:12.975Z,0.00
2022-10-01T01:48:13.045Z,0.00
2022-10-01T01:49:13.167Z,0.00
2022-10-01T01:50:13.236Z,0.00
2022-10-01T01:51:13.356Z,0.00
2022-10-01T01:52:13.564Z,0.00
2022-10-01T01:53:13.583Z,0.00
2022-10-01T01:54:13.686Z,0.00
2022-10-01T01:55:13.796Z,0.00
2022-10-01T01:56:13.936Z,0.00
2022-10-01T01:57:14.076Z,0.00
2022-10-01T01:58:14.219Z,0.00
2022-10-01T01:59:14.273Z,0.00
2022-10-01T02:00:14.387Z,0.00
2022-10-01T02:01:14.519Z,0.00
2022-10-01T02:02:14.795Z,0.00
2022-10-01T02:03:14.734Z,0.00
2022-10-01T02:04:14.815Z,0.00
2022-10-01T02:05:14.943Z,0.00
2022-10-01T02:06:15.050Z,0.00
2022-10-01T02:07:15.193Z,0.00
2022-10-01T02:08:15.253Z,0.00
2022-10-01T02:09:15.390Z,0.00
2022-10-01T02:10:15.484Z,0.00
2022-10-01T02:11:15.630Z,0.00
2022-10-01T02:12:15.781Z,0.00
2022-10-01T02:13:15.840Z,0.00
2022-10-01T02:14:15.931Z,0.00
2022-10-01T02:15:16.042Z,0.00
2022-10-01T02:16:16.212Z,0.00
2022-10-01T02:17:16.299Z,0.00
2022-10-01T02:18:16.369Z,0.00
2022-10-01T02:19:16.529Z,0.00
2022-10-01T02:20:16.574Z,0.00
2022-10-01T02:21:16.684Z,0.00
2022-10-01T02:22:16.828Z,0.00
2022-10-01T02:23:16.910Z,0.00
2022-10-01T02:24:17.022Z,0.00
2022-10-01T02:25:17.131Z,0.00
2022-10-01T02:26:17.248Z,0.00
2022-10-01T02:27:17.487Z,0.00
2022-10-01T02:28:17.537Z,0.00
2022-10-01T02:29:17.564Z,0.00
2022-10-01T02:30:17.655Z,0.00
2022-10-01T02:31:17.977Z,0.00
2022-10-01T02:32:17.916Z,0.00
2022-10-01T02:33:18.026Z,0.00
2022-10-01T02:34:20.251Z,0.00
2022-10-01T02:35:18.213Z,0.00
2022-10-01T02:36:18.327Z,0.00
2022-10-01T02:37:18.520Z,0.00
2022-10-01T02:38:18.544Z,0.00
2022-10-01T02:39:18.668Z,0.00
2022-10-01T02:40:18.765Z,0.00
2022-10-01T02:41:18.865Z,0.00
2022-10-01T02:42:19.004Z,0.00
2022-10-01T02:43:19.135Z,0.00
2022-10-01T02:44:19.222Z,0.00
2022-10-01T02:45:19.342Z,0.00
2022-10-01T02:46:19.502Z,0.00
2022-10-01T02:47:19.626Z,0.00
2022-10-01T02:48:19.662Z,0.00
2022-10-01T02:49:19.766Z,0.00
2022-10-01T02:50:19.891Z,0.00
2022-10-01T02:51:20.000Z,0.00
2022-10-01T02:52:20.221Z,0.00
2022-10-01T02:53:20.235Z,0.00
2022-10-01T02:54:20.326Z,0.00
2022-10-01T02:55:20.431Z,0.00
2022-10-01T02:56:20.559Z,0.00
2022-10-01T02:57:20.693Z,0.00
2022-10-01T02:58:20.801Z,0.00
2022-10-01T02:59:20.901Z,0.00
2022-10-01T03:00:21.019Z,0.00
2022-10-01T03:01:21.214Z,0.00
2022-10-01T03:02:21.367Z,0.00
2022-10-01T03:03:21.396Z,0.00
2022-10-01T03:04:21.468Z,0.00
2022-10-01T03:05:21.569Z,0.00
2022-10-01T03:06:21.702Z,0.00
2022-10-01T03:07:21.928Z,0.00
2022-10-01T03:08:22.857Z,0.00
2022-10-01T03:09:22.125Z,0.00
2022-10-01T03:10:22.142Z,0.00
2022-10-01T03:11:22.247Z,0.00
2022-10-01T03:12:22.387Z,0.00
2022-10-01T03:13:22.487Z,0.00
2022-10-01T03:14:22.607Z,0.00
2022-10-01T03:15:22.746Z,0.00
2022-10-01T03:16:22.905Z,0.00
2022-10-01T03:17:23.004Z,0.00
2022-10-01T03:18:23.116Z,0.00
2022-10-01T03:19:23.225Z,0.00
2022-10-01T03:20:23.339Z,0.00
2022-10-01T03:21:23.467Z,0.00
2022-10-01T03:22:23.604Z,0.00
2022-10-01T03:23:23.686Z,0.00
2022-10-01T03:24:23.784Z,0.00
2022-10-01T03:25:23.893Z,0.00
2022-10-01T03:26:24.014Z,0.00
2022-10-01T03:27:24.155Z,0.00
2022-10-01T03:28:24.296Z,0.00
2022-10-01T03:29:24.313Z,0.00
2022-10-01T03:30:24.432Z,0.00
2022-10-01T03:31:24.606Z,0.00
2022-10-01T03:32:24.703Z,0.00
2022-10-01T03:33:24.771Z,0.00
2022-10-01T03:34:24.887Z,0.00
2022-10-01T03:35:25.020Z,0.00
2022-10-01T03:36:25.112Z,0.00
2022-10-01T03:37:25.297Z,0.00
2022-10-01T03:38:25.346Z,0.00
2022-10-01T03:39:25.441Z,0.00
2022-10-01T03:40:25.561Z,0.00
2022-10-01T03:41:25.659Z,0.00
2022-10-01T03:42:25.812Z,0.00
2022-10-01T03:43:25.888Z,0.00
2022-10-01T03:44:25.989Z,0.00
2022-10-01T03:45:26.167Z,0.00
2022-10-01T03:46:26.209Z,0.00
2022-10-01T03:47:26.337Z,0.00
2022-10-01T03:48:26.428Z,0.00
2022-10-01T03:49:26.546Z,0.00
2022-10-01T03:50:26.718Z,0.00
2022-10-01T03:51:26.757Z,0.00
2022-10-01T03:52:26.908Z,0.00
2022-10-01T03:53:26.977Z,0.00
2022-10-01T03:54:27.086Z,0.00
2022-10-01T03:55:27.187Z,0.00
2022-10-01T03:56:27.299Z,0.00
2022-10-01T03:57:27.436Z,0.00
2022-10-01T03:58:27.537Z,0.00
2022-10-01T03:59:27.639Z,0.00
2022-10-01T04:00:27.745Z,0.00
2022-10-01T04:01:27.972Z,0.00
2022-10-01T04:02:28.157Z,0.00
2022-10-01T04:03:28.115Z,0.00
2022-10-01T04:04:28.225Z,0.00
2022-10-01T04:05:28.355Z,0.00
2022-10-01T04:06:28.504Z,0.00
2022-10-01T04:07:28.584Z,0.00
2022-10-01T04:08:28.692Z,0.00
2022-10-01T04:09:28.789Z,0.00
2022-10-01T04:10:28.896Z,0.00
2022-10-01T04:11:29.073Z,0.00
2022-10-01T04:12:29.152Z,0.00
2022-10-01T04:13:29.302Z,0.00
2022-10-01T04:14:29.441Z,0.00
2022-10-01T04:15:29.588Z,0.00
2022-10-01T04:16:29.828Z,0.00
2022-10-01T04:17:29.873Z,0.00
2022-10-01T04:18:29.967Z,0.00
2022-10-01T04:19:30.103Z,0.00
2022-10-01T04:20:30.240Z,0.00
2022-10-01T04:21:30.426Z,0.00
2022-10-01T04:22:30.553Z,0.00
2022-10-01T04:23:30.640Z,0.00
2022-10-01T04:24:30.762Z,0.00
2022-10-01T04:25:30.905Z,0.00
2022-10-01T04:26:31.113Z,0.00
2022-10-01T04:27:31.176Z,0.00
2022-10-01T04:28:31.348Z,0.00
2022-10-01T04:29:31.368Z,0.00
2022-10-01T04:30:31.500Z,0.00
2022-10-01T04:31:32.038Z,0.00
2022-10-01T04:32:31.769Z,0.00
2022-10-01T04:33:31.918Z,0.00
2022-10-01T04:34:32.052Z,0.00
2022-10-01T04:35:32.148Z,0.00
2022-10-01T04:36:32.485Z,0.00
2022-10-01T04:37:32.446Z,0.00
2022-10-01T04:38:32.526Z,0.00
2022-10-01T04:39:32.688Z,0.00
2022-10-01T04:40:32.786Z,0.00
2022-10-01T04:41:33.470Z,0.00
2022-10-01T04:42:33.035Z,0.00
2022-10-01T04:43:33.175Z,0.00
2022-10-01T04:44:33.322Z,0.00
2022-10-01T04:45:33.487Z,0.00
2022-10-01T04:46:33.637Z,0.00
2022-10-01T04:47:37.514Z,0.00
2022-10-01T04:48:33.823Z,0.00
2022-10-01T04:49:33.963Z,0.00
2022-10-01T04:50:34.091Z,0.00
2022-10-01T04:51:34.525Z,0.00
2022-10-01T04:52:34.353Z,0.00
2022-10-01T04:53:34.480Z,0.00
2022-10-01T04:54:34.603Z,0.00
2022-10-01T04:55:34.736Z,0.00
2022-10-01T04:56:34.922Z,0.00
2022-10-01T04:57:35.025Z,0.00
2022-10-01T04:58:35.120Z,0.00
2022-10-01T04:59:35.217Z,0.00
2022-10-01T05:00:35.385Z,0.00
2022-10-01T05:01:36.029Z,0.00
2022-10-01T05:02:35.724Z,0.00
2022-10-01T05:03:35.743Z,0.00
2022-10-01T05:04:35.870Z,0.00
2022-10-01T05:05:36.008Z,0.00
2022-10-01T05:06:36.251Z,0.00
2022-10-01T05:07:36.297Z,0.00
2022-10-01T05:08:36.387Z,0.00
2022-10-01T05:09:36.538Z,4.00
2022-10-01T05:10:36.667Z,4.00
2022-10-01T05:11:37.036Z,4.00
2022-10-01T05:12:36.935Z,4.00
2022-10-01T05:13:37.077Z,4.00
2022-10-01T05:14:37.206Z,4.00
2022-10-01T05:15:37.368Z,0.00
2022-10-01T05:16:37.524Z,4.00
2022-10-01T05:17:37.588Z,8.00
2022-10-01T05:18:37.710Z,8.00
2022-10-01T05:19:37.855Z,4.00
2022-10-01T05:20:37.976Z,8.00
2022-10-01T05:21:39.065Z,8.00
2022-10-01T05:22:38.208Z,16.00
2022-10-01T05:23:38.335Z,12.00
2022-10-01T05:24:38.464Z,12.00
2022-10-01T05:25:38.644Z,12.00
2022-10-01T05:26:38.715Z,16.00
2022-10-01T05:27:38.845Z,24.00
2022-10-01T05:28:39.982Z,28.00
2022-10-01T05:29:39.130Z,36.00
2022-10-01T05:30:39.293Z,40.00
2022-10-01T05:31:39.766Z,44.00
2022-10-01T05:32:39.503Z,44.00
2022-10-01T05:33:39.663Z,44.00
2022-10-01T05:34:39.762Z,80.00
2022-10-01T05:35:39.930Z,84.00
2022-10-01T05:36:40.031Z,56.00
2022-10-01T05:37:40.169Z,40.00
2022-10-01T05:38:40.311Z,64.00
2022-10-01T05:39:40.460Z,80.00
2022-10-01T05:40:40.623Z,80.00
2022-10-01T05:41:40.720Z,56.00
2022-10-01T05:42:40.858Z,56.00
2022-10-01T05:43:40.979Z,64.00
2022-10-01T05:44:41.101Z,76.00
2022-10-01T05:45:41.353Z,84.00
2022-10-01T05:46:41.371Z,76.00
2022-10-01T05:47:41.524Z,80.00
2022-10-01T05:48:41.637Z,104.00
2022-10-01T05:49:41.769Z,132.00
2022-10-01T05:50:41.923Z,108.00
2022-10-01T05:51:42.057Z,104.00
2022-10-01T05:52:42.177Z,164.00
2022-10-01T05:53:42.491Z,164.00
2022-10-01T05:54:42.458Z,168.00
2022-10-01T05:55:42.687Z,184.00
2022-10-01T05:56:42.717Z,188.00
2022-10-01T05:57:42.865Z,128.00
2022-10-01T05:58:42.996Z,108.00
2022-10-01T05:59:43.139Z,112.00
2022-10-01T06:00:43.294Z,96.00
2022-10-01T06:01:43.456Z,132.00
2022-10-01T06:02:43.591Z,196.00
2022-10-01T06:03:43.668Z,212.00
2022-10-01T06:04:43.757Z,160.00
2022-10-01T06:05:43.935Z,156.00
2022-10-01T06:06:44.032Z,172.00
2022-10-01T06:07:44.195Z,312.00
2022-10-01T06:08:44.284Z,260.00
2022-10-01T06:09:44.414Z,388.00
2022-10-01T06:10:44.697Z,420.00
2022-10-01T06:11:44.682Z,528.00
2022-10-01T06:12:44.836Z,460.00
2022-10-01T06:13:44.931Z,528.00
2022-10-01T06:14:45.056Z,756.00
2022-10-01T06:15:45.211Z,656.00
2022-10-01T06:16:45.315Z,644.00
2022-10-01T06:17:45.477Z,868.00
2022-10-01T06:18:45.583Z,1164.00
2022-10-01T06:19:45.745Z,1444.00
2022-10-01T06:20:45.849Z,1548.00
2022-10-01T06:21:45.931Z,1064.00
2022-10-01T06:22:46.073Z,1368.00
2022-10-01T06:23:46.211Z,792.00
2022-10-01T06:24:46.363Z,712.00
2022-10-01T06:25:46.550Z,1128.00
2022-10-01T06:26:46.630Z,988.00
2022-10-01T06:27:46.831Z,788.00
2022-10-01T06:28:46.901Z,1168.00
2022-10-01T06:29:47.028Z,1072.00
2022-10-01T06:30:47.182Z,1316.00
2022-10-01T06:31:47.330Z,1476.00
2022-10-01T06:32:47.397Z,1560.00
2022-10-01T06:33:47.487Z,1856.00
2022-10-01T06:34:47.657Z,1968.00
2022-10-01T06:35:47.776Z,1844.00
2022-10-01T06:36:47.878Z,1296.00
2022-10-01T06:37:48.006Z,1112.00
2022-10-01T06:38:48.155Z,960.00
2022-10-01T06:39:48.228Z,928.00
2022-10-01T06:40:48.386Z,1060.00
2022-10-01T06:41:48.491Z,1084.00
2022-10-01T06:42:48.608Z,1324.00
2022-10-01T06:43:48.747Z,1292.00
2022-10-01T06:44:48.888Z,1236.00
2022-10-01T06:45:49.129Z,1840.00
2022-10-01T06:46:49.144Z,1848.00
2022-10-01T06:47:49.267Z,1448.00
2022-10-01T06:48:49.387Z,1248.00
2022-10-01T06:49:49.514Z,1324.00
2022-10-01T06:50:49.673Z,1272.00
2022-10-01T06:51:49.773Z,1240.00
2022-10-01T06:52:49.904Z,1904.00
2022-10-01T06:53:50.033Z,1928.00
2022-10-01T06:54:50.170Z,1720.00
2022-10-01T06:55:50.343Z,1208.00
2022-10-01T06:56:50.424Z,1468.00
2022-10-01T06:57:50.552Z,1596.00
2022-10-01T06:58:50.694Z,1800.00
2022-10-01T06:59:50.839Z,1808.00
2022-10-01T07:00:51.087Z,1856.00
2022-10-01T07:01:56.086Z,1908.00
2022-10-01T07:02:52.258Z,2388.00
2022-10-01T07:03:51.390Z,2148.00
2022-10-01T07:04:51.470Z,1804.00
2022-10-01T07:05:51.641Z,1896.00
2022-10-01T07:06:51.791Z,2312.00
2022-10-01T07:07:51.869Z,2920.00
2022-10-01T07:08:52.031Z,3024.00
2022-10-01T07:09:52.110Z,2248.00
2022-10-01T07:10:53.242Z,1740.00
2022-10-01T07:11:52.382Z,3036.00
2022-10-01T07:12:52.490Z,3440.00
2022-10-01T07:13:54.708Z,3368.00
2022-10-01T07:14:52.730Z,3844.00
2022-10-01T07:15:53.082Z,3396.00
2022-10-01T07:16:53.051Z,4436.00
2022-10-01T07:17:53.137Z,3640.00
2022-10-01T07:18:53.288Z,3220.00
2022-10-01T07:19:53.376Z,4684.00
2022-10-01T07:20:53.526Z,4888.00
2022-10-01T07:21:53.658Z,4380.00
2022-10-01T07:22:53.756Z,4600.00
2022-10-01T07:23:53.906Z,4844.00
2022-10-01T07:24:53.995Z,5024.00
2022-10-01T07:25:54.185Z,3824.00
2022-10-01T07:26:54.305Z,3692.00
2022-10-01T07:27:54.445Z,4392.00
2022-10-01T07:28:54.538Z,5592.00
2022-10-01T07:29:54.706Z,3896.00
2022-10-01T07:30:54.875Z,2272.00
2022-10-01T07:31:54.972Z,2384.00
2022-10-01T07:32:55.044Z,2672.00
2022-10-01T07:33:55.204Z,3220.00
2022-10-01T07:34:55.325Z,3260.00
2022-10-01T07:35:55.485Z,3552.00
2022-10-01T07:36:55.555Z,4604.00
2022-10-01T07:37:55.686Z,3976.00
2022-10-01T07:38:55.814Z,4492.00
2022-10-01T07:39:55.970Z,4932.00
2022-10-01T07:40:56.131Z,4860.00
2022-10-01T07:41:56.251Z,4900.00
2022-10-01T07:42:56.360Z,4624.00
2022-10-01T07:43:56.443Z,3984.00
2022-10-01T07:44:56.589Z,3532.00
2022-10-01T07:45:56.766Z,2972.00
2022-10-01T07:46:56.890Z,4616.00
2022-10-01T07:47:57.011Z,5176.00
2022-10-01T07:48:57.198Z,6220.00
2022-10-01T07:49:57.254Z,5772.00
2022-10-01T07:50:57.415Z,5280.00
2022-10-01T07:51:57.510Z,3708.00
2022-10-01T07:52:57.649Z,4048.00
2022-10-01T07:53:57.783Z,3044.00
2022-10-01T07:54:57.930Z,2632.00
2022-10-01T07:55:58.088Z,2532.00
2022-10-01T07:56:58.208Z,4144.00
2022-10-01T07:57:58.318Z,4068.00
2022-10-01T07:58:58.458Z,4708.00
2022-10-01T07:59:58.607Z,3780.00
2022-10-01T08:00:58.991Z,3056.00
2022-10-01T08:01:58.890Z,3308.00
2022-10-01T08:02:59.006Z,3292.00
2022-10-01T08:03:59.146Z,3576.00
2022-10-01T08:04:59.327Z,3932.00
2022-10-01T08:05:59.418Z,6188.00
2022-10-01T08:06:59.547Z,6464.00
2022-10-01T08:07:59.676Z,9132.00
2022-10-01T08:08:59.806Z,9624.00
2022-10-01T08:09:59.946Z,10428.00
2022-10-01T08:11:00.104Z,9124.00
2022-10-01T08:12:00.225Z,9140.00
2022-10-01T08:13:00.369Z,8144.00
2022-10-01T08:14:00.489Z,7060.00
2022-10-01T08:15:00.637Z,6744.00
2022-10-01T08:16:00.795Z,6476.00
2022-10-01T08:17:01.010Z,6824.00
2022-10-01T08:18:01.034Z,6716.00
2022-10-01T08:19:01.174Z,4476.00
2022-10-01T08:20:01.335Z,5632.00
2022-10-01T08:21:01.436Z,6412.00
2022-10-01T08:22:01.565Z,7696.00
2022-10-01T08:23:01.698Z,6572.00
2022-10-01T08:24:01.842Z,7412.00
2022-10-01T08:25:02.034Z,7800.00
2022-10-01T08:26:02.135Z,6152.00
2022-10-01T08:27:02.233Z,7608.00
2022-10-01T08:28:02.419Z,9144.00
2022-10-01T08:29:02.495Z,12096.00
2022-10-01T08:30:02.643Z,14052.00
2022-10-01T08:31:02.762Z,14516.00
2022-10-01T08:32:03.001Z,14260.00
2022-10-01T08:33:03.012Z,12556.00
2022-10-01T08:34:03.181Z,10260.00
2022-10-01T08:35:03.301Z,9784.00
2022-10-01T08:36:03.391Z,9288.00
2022-10-01T08:37:03.541Z,8236.00
2022-10-01T08:38:03.681Z,6760.00
2022-10-01T08:39:03.820Z,6708.00
2022-10-01T08:40:04.068Z,8084.00
2022-10-01T08:41:04.100Z,11892.00
2022-10-01T08:42:04.241Z,14520.00
2022-10-01T08:43:04.381Z,11424.00
2022-10-01T08:44:04.528Z,10628.00
2022-10-01T08:45:05.319Z,6404.00
2022-10-01T08:46:04.864Z,5900.00
2022-10-01T08:47:04.908Z,7640.00
2022-10-01T08:48:05.044Z,17120.00
2022-10-01T08:49:05.169Z,14220.00
2022-10-01T08:50:05.338Z,10120.00
2022-10-01T08:51:05.431Z,12936.00
2022-10-01T08:52:05.557Z,12196.00
2022-10-01T08:53:05.710Z,12868.00
2022-10-01T08:54:05.782Z,15076.00
2022-10-01T08:55:05.946Z,17056.00
2022-10-01T08:56:06.105Z,14408.00
2022-10-01T08:57:06.187Z,17440.00
2022-10-01T08:58:06.326Z,17920.00
2022-10-01T08:59:06.466Z,14276.00
2022-10-01T09:00:06.651Z,9940.00
2022-10-01T09:01:06.806Z,18464.00
2022-10-01T09:02:06.857Z,10792.00
2022-10-01T09:03:06.988Z,5564.00
2022-10-01T09:04:07.156Z,5924.00
2022-10-01T09:05:07.246Z,5368.00
2022-10-01T09:06:07.366Z,6916.00
2022-10-01T09:07:07.465Z,11452.00
2022-10-01T09:08:07.612Z,8348.00
2022-10-01T09:09:07.756Z,7220.00
2022-10-01T09:10:07.921Z,15648.00
2022-10-01T09:11:08.024Z,14400.00
2022-10-01T09:12:08.156Z,25440.00
2022-10-01T09:13:08.427Z,19360.00
2022-10-01T09:14:08.424Z,24576.00
2022-10-01T09:15:08.595Z,17376.00
2022-10-01T09:16:08.767Z,26976.00
2022-10-01T09:17:08.834Z,28384.00
2022-10-01T09:18:08.994Z,20512.00
2022-10-01T09:19:09.105Z,24224.00
2022-10-01T09:20:09.273Z,12220.00
2022-10-01T09:21:09.372Z,9172.00
2022-10-01T09:22:09.534Z,17280.00
2022-10-01T09:23:09.644Z,8308.00
2022-10-01T09:24:09.722Z,7380.00
2022-10-01T09:25:09.901Z,12148.00
2022-10-01T09:26:10.542Z,20704.00
2022-10-01T09:27:10.093Z,17440.00
2022-10-01T09:28:10.257Z,11732.00
2022-10-01T09:29:10.343Z,13192.00
2022-10-01T09:30:10.624Z,14880.00
2022-10-01T09:31:10.642Z,14808.00
2022-10-01T09:32:10.726Z,12396.00
2022-10-01T09:33:10.861Z,23712.00
2022-10-01T09:34:10.989Z,8392.00
2022-10-01T09:35:11.139Z,8056.00
2022-10-01T09:36:11.242Z,13600.00
2022-10-01T09:37:11.400Z,9584.00
2022-10-01T09:38:11.485Z,8176.00
2022-10-01T09:39:11.580Z,11900.00
2022-10-01T09:40:11.751Z,5300.00
2022-10-01T09:41:11.865Z,4944.00
2022-10-01T09:42:11.960Z,17152.00
2022-10-01T09:43:12.070Z,11820.00
2022-10-01T09:44:15.638Z,5628.00
2022-10-01T09:45:13.369Z,14464.00
2022-10-01T09:46:12.525Z,14944.00
2022-10-01T09:47:12.589Z,14480.00
2022-10-01T09:48:12.740Z,14464.00
2022-10-01T09:49:12.841Z,17280.00
2022-10-01T09:50:13.005Z,17408.00
2022-10-01T09:51:13.118Z,18176.00
2022-10-01T09:52:13.229Z,8100.00
2022-10-01T09:53:13.319Z,15712.00
2022-10-01T09:54:13.454Z,18016.00
2022-10-01T09:55:13.607Z,18304.00
2022-10-01T09:56:13.941Z,24320.00
2022-10-01T09:57:13.879Z,18432.00
2022-10-01T09:58:14.021Z,14304.00
2022-10-01T09:59:14.179Z,15072.00
2022-10-01T10:00:14.270Z,17760.00
2022-10-01T10:01:14.379Z,21248.00
2022-10-01T10:02:14.529Z,23936.00
2022-10-01T10:03:14.761Z,11632.00
2022-10-01T10:04:19.862Z,17856.00
2022-10-01T10:05:15.808Z,17952.00
2022-10-01T10:06:14.990Z,11580.00
2022-10-01T10:07:15.048Z,7660.00
2022-10-01T10:08:15.159Z,9568.00
2022-10-01T10:09:15.269Z,20512.00
2022-10-01T10:10:15.418Z,14512.00
2022-10-01T10:11:15.595Z,23008.00
2022-10-01T10:12:15.626Z,8432.00
2022-10-01T10:13:15.767Z,6864.00
2022-10-01T10:14:15.897Z,5416.00
2022-10-01T10:15:16.048Z,3932.00
2022-10-01T10:16:16.310Z,4996.00
2022-10-01T10:17:16.285Z,27296.00
2022-10-01T10:18:19.262Z,33184.00
2022-10-01T10:19:17.516Z,34880.00
2022-10-01T10:20:16.655Z,8144.00
2022-10-01T10:21:16.778Z,32096.00
2022-10-01T10:22:16.882Z,32672.00
2022-10-01T10:23:17.007Z,16640.00
2022-10-01T10:24:17.095Z,14984.00
2022-10-01T10:25:17.196Z,52992.00
2022-10-01T10:26:17.345Z,25344.00
2022-10-01T10:27:17.445Z,62080.00
2022-10-01T10:28:17.618Z,78976.00
2022-10-01T10:29:17.666Z,26880.00
2022-10-01T10:30:17.832Z,7940.00
2022-10-01T10:31:17.943Z,75200.00
2022-10-01T10:32:18.085Z,76224.00
2022-10-01T10:33:18.135Z,43776.00
2022-10-01T10:34:18.236Z,40416.00
2022-10-01T10:35:18.340Z,42208.00
2022-10-01T10:36:18.466Z,38624.00
2022-10-01T10:37:18.564Z,51200.00
2022-10-01T10:38:18.670Z,73760.00
2022-10-01T10:39:18.778Z,96352.00
2022-10-01T10:40:18.896Z,80288.00
2022-10-01T10:41:19.054Z,67872.00
2022-10-01T10:42:19.187Z,71360.00
2022-10-01T10:43:19.285Z,79968.00
2022-10-01T10:44:19.404Z,15560.00
2022-10-01T10:45:19.532Z,101152.00
2022-10-01T10:46:19.702Z,102720.00
2022-10-01T10:47:19.737Z,94112.00
2022-10-01T10:48:19.864Z,13668.00
2022-10-01T10:49:19.974Z,9380.00
2022-10-01T10:50:20.073Z,7628.00
2022-10-01T10:51:20.204Z,6412.00
2022-10-01T10:52:20.314Z,9940.00
2022-10-01T10:53:20.463Z,13888.00
2022-10-01T10:54:20.593Z,60224.00
2022-10-01T10:55:20.713Z,9760.00
2022-10-01T10:56:20.865Z,5952.00
2022-10-01T10:57:20.922Z,17824.00
2022-10-01T10:58:21.012Z,19840.00
2022-10-01T10:59:21.133Z,63776.00
2022-10-01T11:00:21.232Z,12008.00
2022-10-01T11:01:21.398Z,6492.00
2022-10-01T11:02:21.499Z,6128.00
2022-10-01T11:03:21.565Z,80544.00
2022-10-01T11:04:21.720Z,75936.00
2022-10-01T11:05:21.846Z,76480.00
2022-10-01T11:06:21.973Z,68928.00
2022-10-01T11:07:22.068Z,38976.00
2022-10-01T11:08:22.208Z,3768.00
2022-10-01T11:09:22.293Z,58080.00
2022-10-01T11:10:22.409Z,70016.00
2022-10-01T11:11:22.554Z,0.00
2022-10-01T11:12:22.641Z,14248.00
2022-10-01T11:13:22.784Z,35680.00
2022-10-01T11:14:23.969Z,27520.00
2022-10-01T11:15:23.050Z,23008.00
2022-10-01T11:16:23.347Z,6660.00
2022-10-01T11:17:23.372Z,5204.00
2022-10-01T11:18:23.421Z,7404.00
2022-10-01T11:19:23.530Z,31328.00
2022-10-01T11:20:23.662Z,19104.00
2022-10-01T11:21:23.791Z,18720.00
2022-10-01T11:22:23.901Z,10928.00
2022-10-01T11:23:24.038Z,11572.00
2022-10-01T11:24:24.149Z,11076.00
2022-10-01T11:25:24.250Z,8976.00
2022-10-01T11:26:24.395Z,11932.00
2022-10-01T11:27:24.502Z,13664.00
2022-10-01T11:28:24.719Z,13384.00
2022-10-01T11:29:24.748Z,12432.00
2022-10-01T11:30:24.899Z,7432.00
2022-10-01T11:31:25.067Z,5248.00
2022-10-01T11:32:25.110Z,4272.00
2022-10-01T11:33:25.209Z,4772.00
2022-10-01T11:34:25.319Z,4476.00
2022-10-01T11:35:25.448Z,6424.00
2022-10-01T11:36:25.638Z,6340.00
2022-10-01T11:37:25.718Z,8104.00
2022-10-01T11:38:25.857Z,6192.00
2022-10-01T11:39:25.995Z,7352.00
2022-10-01T11:40:26.138Z,9776.00
2022-10-01T11:41:26.257Z,9136.00
2022-10-01T11:42:26.348Z,11772.00
2022-10-01T11:43:26.517Z,13364.00
2022-10-01T11:44:26.618Z,10176.00
2022-10-01T11:45:26.718Z,14020.00
2022-10-01T11:46:26.914Z,14256.00
2022-10-01T11:47:26.989Z,8132.00
2022-10-01T11:48:27.076Z,6488.00
2022-10-01T11:49:27.225Z,6952.00
2022-10-01T11:50:27.343Z,5476.00
2022-10-01T11:51:27.465Z,5956.00
2022-10-01T11:52:27.583Z,6392.00
2022-10-01T11:53:27.725Z,5156.00
2022-10-01T11:54:27.850Z,5452.00
2022-10-01T11:55:27.945Z,6204.00
2022-10-01T11:56:28.204Z,4740.00
2022-10-01T11:57:28.175Z,9148.00
2022-10-01T11:58:28.259Z,11120.00
2022-10-01T11:59:28.395Z,9968.00
2022-10-01T12:00:28.554Z,13280.00
2022-10-01T12:01:28.700Z,11684.00
2022-10-01T12:02:28.753Z,12408.00
2022-10-01T12:03:28.898Z,12440.00
2022-10-01T12:04:28.996Z,10724.00
2022-10-01T12:05:29.148Z,10408.00
2022-10-01T12:06:33.612Z,13056.00
2022-10-01T12:07:29.313Z,7696.00
2022-10-01T12:08:29.414Z,7328.00
2022-10-01T12:09:29.533Z,9552.00
2022-10-01T12:10:29.634Z,10380.00
2022-10-01T12:11:29.803Z,9588.00
2022-10-01T12:12:29.903Z,8732.00
2022-10-01T12:13:30.003Z,14400.00
2022-10-01T12:14:30.121Z,19584.00
2022-10-01T12:15:30.232Z,13812.00
2022-10-01T12:16:30.541Z,9008.00
2022-10-01T12:17:30.502Z,10356.00
2022-10-01T12:18:30.621Z,6448.00
2022-10-01T12:19:30.711Z,5588.00
2022-10-01T12:20:30.869Z,5352.00
2022-10-01T12:21:30.990Z,8372.00
2022-10-01T12:22:31.112Z,7492.00
2022-10-01T12:23:31.204Z,11916.00
2022-10-01T12:24:31.355Z,10340.00
2022-10-01T12:25:31.460Z,6580.00
2022-10-01T12:26:31.631Z,6712.00
2022-10-01T12:27:31.654Z,8004.00
2022-10-01T12:28:31.836Z,10912.00
2022-10-01T12:29:31.920Z,11372.00
2022-10-01T12:30:32.055Z,9324.00
2022-10-01T12:31:32.351Z,8608.00
2022-10-01T12:32:32.324Z,5412.00
2022-10-01T12:33:32.459Z,5476.00
2022-10-01T12:34:32.610Z,6040.00